KDMA/DMA METAR and TAF weather

Enter ICAO airport designator
Station Type Date Time Source
KDMA METAR 2022/06/25 21:58 UTC NOAA

KDMA 252158Z AUTO 06005KT 10SM CLR 36/09 A2992 RMK AO2 SLP082 T03570085 $


Station Type Date Time Source
KDMA Decoded METAR 2022/06/25 21:58 UTC NOAA

Davis-Monthan Air Force Base, AZ, United States (KDMA) 32-10N 110-53W
Jun 25, 2022 - 05:58 PM EDT / 2022.06.25 2158 UTC
Wind: from the ENE (060 degrees) at 6 MPH (5 KT):0
Visibility: 10 mile(s):0
Sky conditions: clear
Temperature: 96.3 F (35.7 C)
Dew Point: 47.3 F (8.5 C)
Relative Humidity: 18%
Pressure (altimeter): 29.92 in. Hg (1013 hPa)
ob: KDMA 252158Z AUTO 06005KT 10SM CLR 36/09 A2992 RMK AO2 SLP082 T03570085
cycle: 22

Station Type Date Time Source
KDMA TAF 2022/06/25 22:18 UTC NOAA

TAF KDMA 252201Z 2522/2704 31010KT 9999 BKN100 QNH2989INS
TEMPO 2523/2602 33012G18KT VCSH BKN090
BECMG 2603/2604 VRB06KT 9999 SCT065 BKN100 QNH3001INS
BECMG 2615/2616 31009KT 9999 BKN085 QNH3004INS
BECMG 2620/2621 29010KT 9999 VCTS SCT070 BKN100 QNH3000INS
TEMPO 2622/2701 VRB20G30KT 8000 -TSRA BKN090CB
BECMG 2702/2703 VRB06KT 9999 NSW BKN080 QNH3007INS TX36/2622Z TN24/2613Z

Example: see airport list